sensor_id;sensor_type;location;lat;lon;timestamp;pressure;altitude;pressure_sealevel;temperature;humidity
55466;BME280;41329;41.594;23.810;2023-01-25T00:02:01;96172.53;;;8.30;74.30
55466;BME280;41329;41.594;23.810;2023-01-25T00:04:27;96180.66;;;8.27;74.24
55466;BME280;41329;41.594;23.810;2023-01-25T00:06:53;96179.38;;;8.24;74.32
55466;BME280;41329;41.594;23.810;2023-01-25T00:09:19;96185.72;;;8.25;74.43
55466;BME280;41329;41.594;23.810;2023-01-25T00:11:45;96180.56;;;8.15;74.49
55466;BME280;41329;41.594;23.810;2023-01-25T00:14:12;96172.38;;;8.06;74.57
55466;BME280;41329;41.594;23.810;2023-01-25T00:16:38;96185.16;;;8.11;74.98
55466;BME280;41329;41.594;23.810;2023-01-25T00:19:06;96186.44;;;8.13;74.83
55466;BME280;41329;41.594;23.810;2023-01-25T00:21:32;96179.34;;;8.04;75.12
55466;BME280;41329;41.594;23.810;2023-01-25T00:23:59;96188.06;;;8.06;75.15
55466;BME280;41329;41.594;23.810;2023-01-25T00:26:24;96137.56;;;7.73;75.15
55466;BME280;41329;41.594;23.810;2023-01-25T00:28:54;96130.13;;;7.73;74.96
55466;BME280;41329;41.594;23.810;2023-01-25T00:36:50;96183.19;;;7.91;75.73
55466;BME280;41329;41.594;23.810;2023-01-25T00:39:16;96189.63;;;7.95;75.99
55466;BME280;41329;41.594;23.810;2023-01-25T00:41:42;96196.25;;;7.94;75.97
55466;BME280;41329;41.594;23.810;2023-01-25T00:44:09;96184.25;;;7.98;75.99
55466;BME280;41329;41.594;23.810;2023-01-25T00:46:34;96190.63;;;7.90;75.81
55466;BME280;41329;41.594;23.810;2023-01-25T00:49:00;96189.97;;;7.93;76.10
55466;BME280;41329;41.594;23.810;2023-01-25T00:51:25;96191.91;;;7.93;76.06
55466;BME280;41329;41.594;23.810;2023-01-25T00:53:51;96165.69;;;7.87;75.97
55466;BME280;41329;41.594;23.810;2023-01-25T00:56:17;96182.97;;;7.96;76.12
55466;BME280;41329;41.594;23.810;2023-01-25T00:58:42;96178.66;;;7.86;76.09
55466;BME280;41329;41.594;23.810;2023-01-25T01:01:08;96181.28;;;7.83;75.99
55466;BME280;41329;41.594;23.810;2023-01-25T01:03:34;96180.94;;;7.84;76.16
55466;BME280;41329;41.594;23.810;2023-01-25T01:06:08;96179.50;;;7.78;76.46
55466;BME280;41329;41.594;23.810;2023-01-25T01:08:37;96181.00;;;7.76;76.60
55466;BME280;41329;41.594;23.810;2023-01-25T01:11:06;96190.06;;;7.76;76.75
55466;BME280;41329;41.594;23.810;2023-01-25T01:13:32;96193.97;;;7.75;76.81
55466;BME280;41329;41.594;23.810;2023-01-25T01:16:00;96182.78;;;7.72;76.81
55466;BME280;41329;41.594;23.810;2023-01-25T01:18:33;96174.25;;;7.65;77.13
55466;BME280;41329;41.594;23.810;2023-01-25T01:20:59;96186.56;;;7.67;77.28
55466;BME280;41329;41.594;23.810;2023-01-25T01:23:27;96170.03;;;7.67;77.03
55466;BME280;41329;41.594;23.810;2023-01-25T01:25:52;96182.13;;;7.75;77.12
55466;BME280;41329;41.594;23.810;2023-01-25T01:28:18;96160.97;;;7.67;76.75
55466;BME280;41329;41.594;23.810;2023-01-25T01:30:43;96170.63;;;7.73;76.84
55466;BME280;41329;41.594;23.810;2023-01-25T01:33:09;96157.75;;;7.65;76.87
55466;BME280;41329;41.594;23.810;2023-01-25T01:35:34;96168.38;;;7.75;76.62
55466;BME280;41329;41.594;23.810;2023-01-25T01:38:00;96169.31;;;7.79;76.59
55466;BME280;41329;41.594;23.810;2023-01-25T01:40:25;96166.88;;;7.77;76.49
55466;BME280;41329;41.594;23.810;2023-01-25T01:43:05;96166.06;;;7.77;76.12
55466;BME280;41329;41.594;23.810;2023-01-25T01:50:51;96171.88;;;7.84;75.95
55466;BME280;41329;41.594;23.810;2023-01-25T01:53:20;96165.69;;;7.87;76.12
55466;BME280;41329;41.594;23.810;2023-01-25T01:55:48;96165.81;;;7.90;75.79
55466;BME280;41329;41.594;23.810;2023-01-25T01:58:15;96160.38;;;7.82;75.71
55466;BME280;41329;41.594;23.810;2023-01-25T02:00:40;96162.78;;;7.83;75.64
55466;BME280;41329;41.594;23.810;2023-01-25T02:03:08;96169.59;;;7.86;75.29
55466;BME280;41329;41.594;23.810;2023-01-25T02:05:45;96170.91;;;7.80;75.53
55466;BME280;41329;41.594;23.810;2023-01-25T02:08:13;96157.34;;;7.75;75.39
55466;BME280;41329;41.594;23.810;2023-01-25T02:10:41;96164.25;;;7.81;75.36
55466;BME280;41329;41.594;23.810;2023-01-25T02:13:08;96159.91;;;7.80;75.39
55466;BME280;41329;41.594;23.810;2023-01-25T02:15:40;96163.94;;;7.82;75.22
55466;BME280;41329;41.594;23.810;2023-01-25T02:18:08;96149.09;;;7.75;75.26
55466;BME280;41329;41.594;23.810;2023-01-25T02:25:46;96169.66;;;7.77;75.24
55466;BME280;41329;41.594;23.810;2023-01-25T02:28:25;96156.44;;;7.62;75.47
55466;BME280;41329;41.594;23.810;2023-01-25T02:30:51;96150.50;;;7.52;75.55
55466;BME280;41329;41.594;23.810;2023-01-25T02:33:17;96134.56;;;7.37;75.58
55466;BME280;41329;41.594;23.810;2023-01-25T02:35:47;96159.78;;;7.47;75.64
55466;BME280;41329;41.594;23.810;2023-01-25T02:38:17;96158.34;;;7.41;75.74
55466;BME280;41329;41.594;23.810;2023-01-25T02:40:51;96155.94;;;7.40;75.76
55466;BME280;41329;41.594;23.810;2023-01-25T02:43:18;96153.97;;;7.40;75.87
55466;BME280;41329;41.594;23.810;2023-01-25T02:45:46;96147.25;;;7.29;75.97
55466;BME280;41329;41.594;23.810;2023-01-25T02:48:13;96142.34;;;7.35;75.90
55466;BME280;41329;41.594;23.810;2023-01-25T02:50:39;96137.69;;;7.27;76.01
55466;BME280;41329;41.594;23.810;2023-01-25T02:53:04;96137.19;;;7.33;75.78
55466;BME280;41329;41.594;23.810;2023-01-25T02:55:29;96152.16;;;7.44;75.97
55466;BME280;41329;41.594;23.810;2023-01-25T02:57:55;96156.53;;;7.45;75.78
55466;BME280;41329;41.594;23.810;2023-01-25T03:00:20;96156.53;;;7.45;75.50
55466;BME280;41329;41.594;23.810;2023-01-25T03:02:46;96157.34;;;7.46;75.37
55466;BME280;41329;41.594;23.810;2023-01-25T03:05:11;96142.00;;;7.36;75.49
55466;BME280;41329;41.594;23.810;2023-01-25T03:07:37;96136.22;;;7.29;75.43
55466;BME280;41329;41.594;23.810;2023-01-25T03:10:03;96145.94;;;7.27;75.51
55466;BME280;41329;41.594;23.810;2023-01-25T03:12:28;96162.63;;;7.30;75.46
55466;BME280;41329;41.594;23.810;2023-01-25T03:14:54;96156.63;;;7.28;75.59
55466;BME280;41329;41.594;23.810;2023-01-25T03:17:19;96162.97;;;7.20;76.04
55466;BME280;41329;41.594;23.810;2023-01-25T03:19:44;96149.72;;;7.14;76.38
55466;BME280;41329;41.594;23.810;2023-01-25T03:22:10;96157.75;;;7.27;76.48
55466;BME280;41329;41.594;23.810;2023-01-25T03:24:35;96132.09;;;7.15;76.47
55466;BME280;41329;41.594;23.810;2023-01-25T03:27:01;96159.69;;;7.27;76.16
55466;BME280;41329;41.594;23.810;2023-01-25T03:29:36;96157.31;;;7.17;76.29
55466;BME280;41329;41.594;23.810;2023-01-25T03:32:02;96163.13;;;7.24;76.20
55466;BME280;41329;41.594;23.810;2023-01-25T03:34:28;96146.19;;;7.13;76.47
55466;BME280;41329;41.594;23.810;2023-01-25T03:36:53;96171.72;;;7.22;76.15
55466;BME280;41329;41.594;23.810;2023-01-25T03:39:19;96166.09;;;7.10;76.10
55466;BME280;41329;41.594;23.810;2023-01-25T03:41:44;96159.94;;;7.13;76.45
55466;BME280;41329;41.594;23.810;2023-01-25T03:44:10;96147.66;;;7.02;76.55
55466;BME280;41329;41.594;23.810;2023-01-25T03:46:37;96157.38;;;7.08;76.79
55466;BME280;41329;41.594;23.810;2023-01-25T03:49:02;96167.03;;;7.14;76.66
55466;BME280;41329;41.594;23.810;2023-01-25T03:51:28;96153.47;;;7.09;76.46
55466;BME280;41329;41.594;23.810;2023-01-25T03:53:53;96174.78;;;7.21;76.46
55466;BME280;41329;41.594;23.810;2023-01-25T03:56:19;96161.03;;;7.21;76.24
55466;BME280;41329;41.594;23.810;2023-01-25T03:58:45;96164.28;;;7.23;76.09
55466;BME280;41329;41.594;23.810;2023-01-25T04:01:10;96171.06;;;7.25;76.00
55466;BME280;41329;41.594;23.810;2023-01-25T04:03:36;96160.06;;;7.25;75.91
55466;BME280;41329;41.594;23.810;2023-01-25T04:06:03;96165.69;;;7.29;76.08
55466;BME280;41329;41.594;23.810;2023-01-25T04:08:29;96162.94;;;7.29;75.65
55466;BME280;41329;41.594;23.810;2023-01-25T04:10:59;96161.88;;;7.13;76.06
55466;BME280;41329;41.594;23.810;2023-01-25T04:13:25;96160.72;;;7.14;76.28
55466;BME280;41329;41.594;23.810;2023-01-25T04:15:51;96164.47;;;7.09;76.46
55466;BME280;41329;41.594;23.810;2023-01-25T04:18:16;96109.88;;;6.82;76.63
55466;BME280;41329;41.594;23.810;2023-01-25T04:20:43;96167.03;;;7.14;76.46
55466;BME280;41329;41.594;23.810;2023-01-25T04:23:08;96166.22;;;7.14;76.40
55466;BME280;41329;41.594;23.810;2023-01-25T04:25:35;96157.38;;;7.08;76.25
55466;BME280;41329;41.594;23.810;2023-01-25T04:28:01;96166.41;;;7.09;76.22
55466;BME280;41329;41.594;23.810;2023-01-25T04:30:26;96168.97;;;7.14;76.14
55466;BME280;41329;41.594;23.810;2023-01-25T04:32:52;96170.78;;;7.10;75.69
55466;BME280;41329;41.594;23.810;2023-01-25T04:35:18;96180.88;;;6.97;75.52
55466;BME280;41329;41.594;23.810;2023-01-25T04:37:54;96165.84;;;6.86;75.54
55466;BME280;41329;41.594;23.810;2023-01-25T04:40:20;96186.38;;;6.89;75.60
55466;BME280;41329;41.594;23.810;2023-01-25T04:42:46;96179.13;;;6.84;75.85
55466;BME280;41329;41.594;23.810;2023-01-25T04:45:11;96168.78;;;6.81;75.77
55466;BME280;41329;41.594;23.810;2023-01-25T04:47:37;96198.84;;;6.86;76.00
55466;BME280;41329;41.594;23.810;2023-01-25T04:50:03;96188.81;;;6.90;75.82
55466;BME280;41329;41.594;23.810;2023-01-25T04:52:28;96190.09;;;6.93;75.41
55466;BME280;41329;41.594;23.810;2023-01-25T04:54:54;96197.56;;;6.92;75.56
55466;BME280;41329;41.594;23.810;2023-01-25T04:57:19;96182.66;;;6.85;75.30
55466;BME280;41329;41.594;23.810;2023-01-25T04:59:44;96181.22;;;6.87;75.28
55466;BME280;41329;41.594;23.810;2023-01-25T05:02:10;96194.03;;;6.83;75.35
55466;BME280;41329;41.594;23.810;2023-01-25T05:04:35;96161.84;;;6.67;75.44
55466;BME280;41329;41.594;23.810;2023-01-25T05:07:01;96184.00;;;6.79;75.10
55466;BME280;41329;41.594;23.810;2023-01-25T05:09:26;96194.84;;;6.75;75.03
55466;BME280;41329;41.594;23.810;2023-01-25T05:11:52;96179.16;;;6.58;75.17
55466;BME280;41329;41.594;23.810;2023-01-25T05:14:17;96187.88;;;6.69;75.40
55466;BME280;41329;41.594;23.810;2023-01-25T05:16:43;96198.25;;;6.72;75.43
55466;BME280;41329;41.594;23.810;2023-01-25T05:19:08;96190.66;;;6.61;75.60
55466;BME280;41329;41.594;23.810;2023-01-25T05:21:34;96167.69;;;6.57;75.46
55466;BME280;41329;41.594;23.810;2023-01-25T05:24:18;96187.75;;;6.66;75.42
55466;BME280;41329;41.594;23.810;2023-01-25T05:26:43;96186.59;;;6.67;75.44
55466;BME280;41329;41.594;23.810;2023-01-25T05:29:29;96195.34;;;6.69;75.70
55466;BME280;41329;41.594;23.810;2023-01-25T05:31:56;96201.66;;;6.61;75.59
55466;BME280;41329;41.594;23.810;2023-01-25T05:34:21;96182.25;;;6.48;75.53
55466;BME280;41329;41.594;23.810;2023-01-25T05:36:47;96184.50;;;6.46;75.54
55466;BME280;41329;41.594;23.810;2023-01-25T05:39:12;96194.69;;;6.54;75.71
55466;BME280;41329;41.594;23.810;2023-01-25T05:41:38;96166.56;;;6.32;75.70
55466;BME280;41329;41.594;23.810;2023-01-25T05:44:03;96197.75;;;6.53;75.72
55466;BME280;41329;41.594;23.810;2023-01-25T05:46:29;96184.50;;;6.46;75.48
55466;BME280;41329;41.594;23.810;2023-01-25T05:48:54;96200.53;;;6.36;75.90
55466;BME280;41329;41.594;23.810;2023-01-25T05:51:20;96185.34;;;6.38;75.53
55466;BME280;41329;41.594;23.810;2023-01-25T05:53:45;96189.88;;;6.34;75.61
55466;BME280;41329;41.594;23.810;2023-01-25T05:56:11;96199.09;;;6.30;75.64
55466;BME280;41329;41.594;23.810;2023-01-25T05:58:37;96194.41;;;6.22;75.57
55466;BME280;41329;41.594;23.810;2023-01-25T06:01:03;96201.19;;;6.24;75.63
55466;BME280;41329;41.594;23.810;2023-01-25T06:03:30;96198.75;;;6.14;75.81
55466;BME280;41329;41.594;23.810;2023-01-25T06:05:56;96205.22;;;6.01;76.56
55466;BME280;41329;41.594;23.810;2023-01-25T06:08:22;96199.25;;;6.08;76.67
55466;BME280;41329;41.594;23.810;2023-01-25T06:10:48;96198.13;;;6.09;76.83
55466;BME280;41329;41.594;23.810;2023-01-25T06:13:13;96199.72;;;5.93;77.20
55466;BME280;41329;41.594;23.810;2023-01-25T06:15:39;96174.44;;;5.65;77.62
55466;BME280;41329;41.594;23.810;2023-01-25T06:18:04;96202.41;;;5.76;77.69
55466;BME280;41329;41.594;23.810;2023-01-25T06:20:30;96174.91;;;5.11;78.71
55466;BME280;41329;41.594;23.810;2023-01-25T06:22:55;96174.13;;;5.11;78.83
55466;BME280;41329;41.594;23.810;2023-01-25T06:25:21;96190.84;;;5.01;79.59
55466;BME280;41329;41.594;23.810;2023-01-25T06:27:46;96204.75;;;5.04;79.94
55466;BME280;41329;41.594;23.810;2023-01-25T06:30:12;96199.47;;;5.16;79.84
55466;BME280;41329;41.594;23.810;2023-01-25T06:32:37;96180.94;;;5.22;79.81
55466;BME280;41329;41.594;23.810;2023-01-25T06:35:03;96190.03;;;5.48;79.36
55466;BME280;41329;41.594;23.810;2023-01-25T06:37:29;96193.00;;;5.60;78.93
55466;BME280;41329;41.594;23.810;2023-01-25T06:39:54;96205.47;;;5.74;78.53
55466;BME280;41329;41.594;23.810;2023-01-25T06:42:22;96203.09;;;5.90;78.24
55466;BME280;41329;41.594;23.810;2023-01-25T06:44:48;96203.47;;;6.05;78.14
55466;BME280;41329;41.594;23.810;2023-01-25T06:47:13;96202.31;;;6.15;77.75
55466;BME280;41329;41.594;23.810;2023-01-25T06:49:39;96194.06;;;6.23;77.88
55466;BME280;41329;41.594;23.810;2023-01-25T06:52:04;96200.22;;;6.37;77.59
55466;BME280;41329;41.594;23.810;2023-01-25T06:54:30;96182.09;;;6.36;77.34
55466;BME280;41329;41.594;23.810;2023-01-25T06:56:55;96205.06;;;6.57;76.99
55466;BME280;41329;41.594;23.810;2023-01-25T06:59:20;96203.59;;;6.60;76.88
55466;BME280;41329;41.594;23.810;2023-01-25T07:01:46;96206.84;;;6.62;76.25
55466;BME280;41329;41.594;23.810;2023-01-25T07:04:11;96199.69;;;6.61;75.92
55466;BME280;41329;41.594;23.810;2023-01-25T07:06:37;96210.38;;;6.63;75.18
55466;BME280;41329;41.594;23.810;2023-01-25T07:09:08;96186.16;;;6.47;75.51
55466;BME280;41329;41.594;23.810;2023-01-25T07:11:34;96205.19;;;6.61;75.51
55466;BME280;41329;41.594;23.810;2023-01-25T07:14:00;96199.69;;;6.61;75.62
55466;BME280;41329;41.594;23.810;2023-01-25T07:16:26;96208.44;;;6.63;75.28
55466;BME280;41329;41.594;23.810;2023-01-25T07:18:51;96207.94;;;6.61;75.18
55466;BME280;41329;41.594;23.810;2023-01-25T07:21:20;96183.25;;;6.35;74.81
55466;BME280;41329;41.594;23.810;2023-01-25T07:23:47;96208.78;;;6.44;75.38
55466;BME280;41329;41.594;23.810;2023-01-25T07:26:23;96217.00;;;6.53;75.55
55466;BME280;41329;41.594;23.810;2023-01-25T07:28:50;96201.97;;;6.50;75.35
55466;BME280;41329;41.594;23.810;2023-01-25T07:31:17;96207.81;;;6.57;75.31
55466;BME280;41329;41.594;23.810;2023-01-25T07:33:43;96208.16;;;6.47;75.26
55466;BME280;41329;41.594;23.810;2023-01-25T07:36:11;96190.19;;;6.33;75.21
55466;BME280;41329;41.594;23.810;2023-01-25T07:38:36;96210.91;;;6.47;75.17
55466;BME280;41329;41.594;23.810;2023-01-25T07:41:02;96212.34;;;6.53;75.43
55466;BME280;41329;41.594;23.810;2023-01-25T07:43:28;96211.38;;;6.49;75.16
55466;BME280;41329;41.594;23.810;2023-01-25T07:46:00;96202.63;;;6.39;74.57
55466;BME280;41329;41.594;23.810;2023-01-25T07:48:25;96201.00;;;6.29;74.81
55466;BME280;41329;41.594;23.810;2023-01-25T07:50:51;96199.25;;;6.16;74.20
55466;BME280;41329;41.594;23.810;2023-01-25T07:53:39;96217.50;;;6.29;74.22
55466;BME280;41329;41.594;23.810;2023-01-25T07:56:05;96207.66;;;6.20;74.47
55466;BME280;41329;41.594;23.810;2023-01-25T07:58:31;96182.78;;;6.08;74.65
55466;BME280;41329;41.594;23.810;2023-01-25T08:00:57;96214.44;;;6.14;75.10
55466;BME280;41329;41.594;23.810;2023-01-25T08:03:22;96196.81;;;5.98;74.90
55466;BME280;41329;41.594;23.810;2023-01-25T08:05:48;96204.09;;;6.11;74.72
55466;BME280;41329;41.594;23.810;2023-01-25T08:08:14;96206.84;;;6.19;75.10
55466;BME280;41329;41.594;23.810;2023-01-25T08:10:39;96201.66;;;6.18;74.75
55466;BME280;41329;41.594;23.810;2023-01-25T08:13:05;96185.84;;;6.06;74.61
55466;BME280;41329;41.594;23.810;2023-01-25T08:15:31;96197.47;;;6.12;74.73
55466;BME280;41329;41.594;23.810;2023-01-25T08:18:02;96150.75;;;5.86;74.34
55466;BME280;41329;41.594;23.810;2023-01-25T08:20:28;96184.06;;;6.10;73.92
55466;BME280;41329;41.594;23.810;2023-01-25T08:22:53;96192.13;;;6.15;74.01
55466;BME280;41329;41.594;23.810;2023-01-25T08:25:19;96197.66;;;6.24;73.71
55466;BME280;41329;41.594;23.810;2023-01-25T08:27:44;96190.84;;;6.30;74.14
55466;BME280;41329;41.594;23.810;2023-01-25T08:30:10;96184.03;;;6.36;74.34
55466;BME280;41329;41.594;23.810;2023-01-25T08:32:37;96181.13;;;6.32;74.20
55466;BME280;41329;41.594;23.810;2023-01-25T08:35:03;96153.31;;;6.25;74.05
55466;BME280;41329;41.594;23.810;2023-01-25T08:37:28;96193.91;;;6.54;73.87
55466;BME280;41329;41.594;23.810;2023-01-25T08:39:55;96194.88;;;6.58;73.09
55466;BME280;41329;41.594;23.810;2023-01-25T08:42:24;96190.97;;;6.59;72.37
55466;BME280;41329;41.594;23.810;2023-01-25T08:44:50;96176.91;;;6.61;72.74
55466;BME280;41329;41.594;23.810;2023-01-25T08:47:15;96164.13;;;6.65;72.60
55466;BME280;41329;41.594;23.810;2023-01-25T08:49:41;96172.16;;;6.78;72.69
55466;BME280;41329;41.594;23.810;2023-01-25T08:52:06;96185.78;;;6.83;72.18
55466;BME280;41329;41.594;23.810;2023-01-25T08:54:32;96168.94;;;6.68;72.44
55466;BME280;41329;41.594;23.810;2023-01-25T08:56:57;96178.50;;;6.79;71.79
55466;BME280;41329;41.594;23.810;2023-01-25T08:59:23;96178.66;;;6.74;71.97
55466;BME280;41329;41.594;23.810;2023-01-25T09:01:48;96170.22;;;6.79;71.90
55466;BME280;41329;41.594;23.810;2023-01-25T09:04:14;96179.78;;;6.81;71.87
55466;BME280;41329;41.594;23.810;2023-01-25T09:06:39;96156.81;;;6.77;71.84
55466;BME280;41329;41.594;23.810;2023-01-25T09:09:05;96179.91;;;6.93;71.69
55466;BME280;41329;41.594;23.810;2023-01-25T09:11:34;96176.19;;;6.98;71.36
55466;BME280;41329;41.594;23.810;2023-01-25T09:14:01;96178.75;;;6.94;71.27
55466;BME280;41329;41.594;23.810;2023-01-25T09:16:26;96167.94;;;6.98;71.28
55466;BME280;41329;41.594;23.810;2023-01-25T09:18:54;96159.69;;;6.98;71.36
55466;BME280;41329;41.594;23.810;2023-01-25T09:21:20;96174.03;;;7.12;71.61
55466;BME280;41329;41.594;23.810;2023-01-25T09:23:49;96149.72;;;7.14;71.35
55466;BME280;41329;41.594;23.810;2023-01-25T09:26:15;96157.50;;;7.12;70.80
55466;BME280;41329;41.594;23.810;2023-01-25T09:28:41;96152.81;;;7.12;70.66
55466;BME280;41329;41.594;23.810;2023-01-25T09:31:08;96146.38;;;7.00;70.78
55466;BME280;41329;41.594;23.810;2023-01-25T09:33:39;96147.66;;;7.02;70.60
55466;BME280;41329;41.594;23.810;2023-01-25T09:36:05;96139.72;;;7.09;70.84
55466;BME280;41329;41.594;23.810;2023-01-25T09:38:31;96119.63;;;7.09;71.43
55466;BME280;41329;41.594;23.810;2023-01-25T09:46:13;96120.56;;;7.21;71.21
55466;BME280;41329;41.594;23.810;2023-01-25T09:48:52;96123.97;;;7.18;71.52
55466;BME280;41329;41.594;23.810;2023-01-25T09:52:20;96117.50;;;7.23;71.29
55466;BME280;41329;41.594;23.810;2023-01-25T09:54:17;96119.72;;;7.29;71.11
55466;BME280;41329;41.594;23.810;2023-01-25T09:56:43;96110.59;;;7.37;70.99
55466;BME280;41329;41.594;23.810;2023-01-25T09:59:16;96104.19;;;7.54;70.77
55466;BME280;41329;41.594;23.810;2023-01-25T10:02:33;96110.56;;;7.66;70.97
55466;BME280;41329;41.594;23.810;2023-01-25T10:05:00;96100.91;;;7.60;69.95
55466;BME280;41329;41.594;23.810;2023-01-25T10:07:47;96109.16;;;7.60;69.61
55466;BME280;41329;41.594;23.810;2023-01-25T10:10:47;96109.63;;;7.62;69.12
55466;BME280;41329;41.594;23.810;2023-01-25T10:13:15;96104.09;;;7.62;68.99
55466;BME280;41329;41.594;23.810;2023-01-25T10:15:47;96095.09;;;7.53;68.96
55466;BME280;41329;41.594;23.810;2023-01-25T10:21:19;96081.13;;;7.38;69.57
55466;BME280;41329;41.594;23.810;2023-01-25T10:26:33;96080.22;;;7.54;69.62
55466;BME280;41329;41.594;23.810;2023-01-25T10:29:19;96079.19;;;7.59;69.11
55466;BME280;41329;41.594;23.810;2023-01-25T10:31:50;96061.59;;;7.51;69.07
55466;BME280;41329;41.594;23.810;2023-01-25T10:34:26;96072.13;;;7.49;69.47
55466;BME280;41329;41.594;23.810;2023-01-25T10:37:40;96061.06;;;7.58;69.85
55466;BME280;41329;41.594;23.810;2023-01-25T10:39:48;96054.81;;;7.69;69.26
55466;BME280;41329;41.594;23.810;2023-01-25T10:42:19;96051.53;;;7.55;69.24
55466;BME280;41329;41.594;23.810;2023-01-25T10:44:46;96048.38;;;7.45;70.21
55466;BME280;41329;41.594;23.810;2023-01-25T10:49:47;96038.75;;;7.51;70.65
55466;BME280;41329;41.594;23.810;2023-01-25T10:52:20;95971.63;;;7.23;70.55
55466;BME280;41329;41.594;23.810;2023-01-25T10:54:48;96001.03;;;7.51;69.88
55466;BME280;41329;41.594;23.810;2023-01-25T10:57:18;96014.09;;;7.75;70.19
55466;BME280;41329;41.594;23.810;2023-01-25T10:59:50;96010.69;;;7.78;69.82
55466;BME280;41329;41.594;23.810;2023-01-25T11:07:44;95974.38;;;7.43;69.56
55466;BME280;41329;41.594;23.810;2023-01-25T11:10:31;95981.13;;;7.66;69.02
55466;BME280;41329;41.594;23.810;2023-01-25T11:15:39;95964.66;;;7.78;68.59
55466;BME280;41329;41.594;23.810;2023-01-25T11:18:09;95980.22;;;7.95;67.78
55466;BME280;41329;41.594;23.810;2023-01-25T11:20:36;95965.38;;;7.87;68.03
55466;BME280;41329;41.594;23.810;2023-01-25T11:23:02;95964.03;;;7.61;67.80
55466;BME280;41329;41.594;23.810;2023-01-25T11:25:32;95960.41;;;7.81;68.26
55466;BME280;41329;41.594;23.810;2023-01-25T11:28:21;95955.28;;;7.91;68.13
55466;BME280;41329;41.594;23.810;2023-01-25T11:30:48;95957.28;;;8.03;67.02
55466;BME280;41329;41.594;23.810;2023-01-25T11:33:17;95946.91;;;7.88;67.36
55466;BME280;41329;41.594;23.810;2023-01-25T11:36:19;95946.91;;;7.88;67.75
55466;BME280;41329;41.594;23.810;2023-01-25T11:41:36;95927.28;;;7.89;66.95
55466;BME280;41329;41.594;23.810;2023-01-25T11:55:20;95924.53;;;7.89;67.31
55466;BME280;41329;41.594;23.810;2023-01-25T11:58:18;95920.19;;;8.00;68.05
55466;BME280;41329;41.594;23.810;2023-01-25T12:01:23;95918.91;;;7.98;67.31
55466;BME280;41329;41.594;23.810;2023-01-25T12:14:10;95906.00;;;7.78;67.14
55466;BME280;41329;41.594;23.810;2023-01-25T12:30:12;95894.94;;;7.33;68.35
55466;BME280;41329;41.594;23.810;2023-01-25T12:32:47;95892.38;;;7.49;67.92
55466;BME280;41329;41.594;23.810;2023-01-25T12:37:57;95895.34;;;7.23;68.10
55466;BME280;41329;41.594;23.810;2023-01-25T12:43:32;95904.03;;;7.13;68.34
55466;BME280;41329;41.594;23.810;2023-01-25T12:46:16;95886.25;;;7.11;67.83
55466;BME280;41329;41.594;23.810;2023-01-25T12:48:48;95899.31;;;7.34;67.82
55466;BME280;41329;41.594;23.810;2023-01-25T12:51:15;95880.81;;;7.35;67.26
55466;BME280;41329;41.594;23.810;2023-01-25T12:53:44;95900.97;;;7.47;67.59
55466;BME280;41329;41.594;23.810;2023-01-25T12:56:27;95900.69;;;7.40;67.77
55466;BME280;41329;41.594;23.810;2023-01-25T12:59:19;95896.47;;;7.43;67.24
55466;BME280;41329;41.594;23.810;2023-01-25T13:01:54;95899.53;;;7.41;67.62
55466;BME280;41329;41.594;23.810;2023-01-25T13:10:17;95904.66;;;7.31;68.18
55466;BME280;41329;41.594;23.810;2023-01-25T13:15:43;95896.41;;;7.31;67.77
55466;BME280;41329;41.594;23.810;2023-01-25T13:21:04;95879.38;;;7.49;68.17
55466;BME280;41329;41.594;23.810;2023-01-25T13:23:34;95878.69;;;7.40;67.68
55466;BME280;41329;41.594;23.810;2023-01-25T13:28:57;95893.47;;;7.15;68.88
55466;BME280;41329;41.594;23.810;2023-01-25T13:31:42;95892.81;;;7.18;69.18
55466;BME280;41329;41.594;23.810;2023-01-25T13:44:34;95882.72;;;7.22;68.94
55466;BME280;41329;41.594;23.810;2023-01-25T13:47:03;95891.81;;;7.23;69.46
55466;BME280;41329;41.594;23.810;2023-01-25T13:49:35;95887.09;;;7.23;69.34
55466;BME280;41329;41.594;23.810;2023-01-25T13:52:04;95886.56;;;7.09;69.42
55466;BME280;41329;41.594;23.810;2023-01-25T13:54:29;95898.91;;;6.83;70.72
55466;BME280;41329;41.594;23.810;2023-01-25T13:57:05;95898.94;;;6.74;70.74
55466;BME280;41329;41.594;23.810;2023-01-25T13:59:31;95900.94;;;6.65;71.31
55466;BME280;41329;41.594;23.810;2023-01-25T14:01:57;95897.69;;;6.72;71.30
55466;BME280;41329;41.594;23.810;2023-01-25T14:04:24;95884.28;;;6.70;71.34
55466;BME280;41329;41.594;23.810;2023-01-25T14:06:55;95881.44;;;6.58;71.70
55466;BME280;41329;41.594;23.810;2023-01-25T14:09:21;95887.13;;;6.53;71.42
55466;BME280;41329;41.594;23.810;2023-01-25T14:11:55;95842.06;;;6.16;71.89
55466;BME280;41329;41.594;23.810;2023-01-25T14:14:33;95883.56;;;6.23;72.66
55466;BME280;41329;41.594;23.810;2023-01-25T14:19:55;95878.41;;;6.22;72.97
55466;BME280;41329;41.594;23.810;2023-01-25T14:22:26;95880.53;;;6.16;73.26
55466;BME280;41329;41.594;23.810;2023-01-25T14:27:47;95884.41;;;6.15;73.74
55466;BME280;41329;41.594;23.810;2023-01-25T14:30:31;95887.53;;;6.05;73.74
55466;BME280;41329;41.594;23.810;2023-01-25T14:33:01;95886.72;;;6.05;73.66
55466;BME280;41329;41.594;23.810;2023-01-25T14:35:34;95893.03;;;6.05;73.54
55466;BME280;41329;41.594;23.810;2023-01-25T14:38:01;95894.31;;;6.08;73.61
55466;BME280;41329;41.594;23.810;2023-01-25T14:40:27;95867.19;;;5.98;73.42
55466;BME280;41329;41.594;23.810;2023-01-25T14:42:54;95890.00;;;5.98;73.54
55466;BME280;41329;41.594;23.810;2023-01-25T14:45:23;95870.00;;;5.89;73.86
55466;BME280;41329;41.594;23.810;2023-01-25T14:47:51;95883.28;;;6.16;73.49
55466;BME280;41329;41.594;23.810;2023-01-25T14:50:31;95887.72;;;6.29;73.26
55466;BME280;41329;41.594;23.810;2023-01-25T14:52:58;95859.13;;;6.30;72.78
55466;BME280;41329;41.594;23.810;2023-01-25T14:55:24;95876.41;;;6.31;72.27
55466;BME280;41329;41.594;23.810;2023-01-25T14:57:51;95872.59;;;6.23;72.34
55466;BME280;41329;41.594;23.810;2023-01-25T15:00:22;95864.53;;;6.18;72.34